Jennings, LA

8:56 AM CDT on October 17, 2017 (GMT -0500)
Jennings

Weather History for K3R7 - November, 2013

Change the Weather History Date:

Friday, November 1, 2013

  Actual Average (KCWF) Record (KCWF)
Temperature  
Mean Temperature 65 °F -  
Max Temperature 74 °F 74 °F 87 °F (2003)
Min Temperature 56 °F 58 °F 39 °F (2011)
Growing Degree Days 15 (Base 50)    
Moisture  
Dew Point 58 °F    
Average Humidity 85    
Maximum Humidity 100    
Minimum Humidity 48    
Precipitation  
Precipitation 0.01 in - - ()
Sea Level Pressure  
Sea Level Pressure 29.90 in    
Wind  
Wind Speed 1 mph (NNW)    
Max Wind Speed 7 mph    
Max Gust Speed -    
Visibility 7 miles    
Events Fog    
Averages and records for this station are not official NWS values.
T = Trace of Precipitation, MM = Missing Value Source: NWS Daily Summary

Daily Weather History Graph

Daily Weather History Graph

Search for Another Location

Airport or City:

Trip Planner

Search our weather history database for the weather conditions in past years. The results will help you decide how hot, cold, wet, or windy it might be!

Date:

Astronomy

Nov. 01, 2013 Rise Set
Actual Time 7:25 AM CDT 6:23 PM CDT
Civil Twilight 7:00 AM CDT 6:47 PM CDT
Nautical Twilight 6:31 AM CDT 7:16 PM CDT
Astronomical Twilight 6:03 AM CDT 7:44 PM CDT
Moon 5:25 AM CDT (11/1) 5:10 PM CDT (11/1)
Length of Visible Light 11h 47m
Length of Day
10h 57m
Waning Crescent, 4% of the Moon is Illuminated
Nov 1
Waning Crescent
Nov 3
New
Nov 9
First Quarter
Nov 17
Full
Nov 25
Last Quarter

Hourly Weather History & Observations

Time (CDT) Temp. Dew Point Humidity Pressure Visibility Wind Dir Wind Speed Gust Speed Precip Events Conditions
12:15 AM 62.1 °F 61.9 °F 99% 29.89 in 10.0 mi Calm Calm - N/A   Overcast
12:35 AM 62.1 °F 61.9 °F 99% 29.89 in 10.0 mi Calm Calm - N/A   Mostly Cloudy
12:55 AM 61.2 °F 61.0 °F 99% 29.89 in 2.0 mi Calm Calm - N/A   Scattered Clouds
1:15 AM 60.3 °F 60.3 °F 100% 29.89 in 0.5 mi Calm Calm - N/A Fog Fog
1:35 AM 58.8 °F 58.8 °F 100% 29.89 in 0.5 mi Calm Calm - N/A Fog Fog
1:55 AM 59.0 °F 59.0 °F 100% 29.89 in 0.5 mi Calm Calm - N/A Fog Fog
2:15 AM 58.8 °F 58.8 °F 100% 29.89 in 0.8 mi Calm Calm - N/A   Overcast
2:35 AM 57.9 °F 57.9 °F 100% 29.89 in 0.5 mi Calm Calm - N/A Fog Fog
2:55 AM 57.4 °F 57.4 °F 100% 29.89 in 0.2 mi Calm Calm - N/A Fog Fog
3:15 AM 58.3 °F 58.3 °F 100% 29.89 in 0.2 mi Calm Calm - N/A Fog Fog
3:35 AM 60.1 °F 60.1 °F 100% 29.89 in 1.8 mi NNW 3.5 mph - N/A   Overcast
3:55 AM 60.4 °F 60.4 °F 100% 29.89 in 2.5 mi WNW 3.5 mph - N/A   Overcast
4:15 AM 61.0 °F 61.0 °F 100% 29.88 in 0.8 mi NNW 3.5 mph - N/A   Overcast
4:35 AM 60.8 °F 60.8 °F 100% 29.89 in 7.0 mi NW 4.6 mph - N/A   Overcast
4:55 AM 60.1 °F 60.1 °F 100% 29.89 in 10.0 mi NW 4.6 mph - N/A   Overcast
5:15 AM 59.9 °F 59.9 °F 100% 29.89 in 10.0 mi NNW 4.6 mph - N/A   Overcast
5:35 AM 60.1 °F 60.1 °F 100% 29.90 in 10.0 mi Calm Calm - N/A   Overcast
5:55 AM 60.1 °F 60.1 °F 100% 29.90 in 10.0 mi Calm Calm - N/A   Overcast
6:15 AM 60.3 °F 60.3 °F 100% 29.90 in 10.0 mi North 3.5 mph - N/A   Overcast
6:35 AM 59.7 °F 59.7 °F 100% 29.89 in 7.0 mi Calm Calm - N/A   Mostly Cloudy
6:55 AM 58.3 °F 58.3 °F 100% 29.89 in 2.0 mi Calm Calm - N/A   Scattered Clouds
7:15 AM 57.6 °F 57.6 °F 100% 29.89 in 0.2 mi Calm Calm - N/A Fog Fog
7:35 AM 57.4 °F 57.4 °F 100% 29.89 in 0.2 mi Calm Calm - N/A Fog Fog
7:55 AM 56.5 °F 56.5 °F 100% 29.89 in 0.2 mi Calm Calm - N/A Fog Fog
8:15 AM 58.1 °F 58.1 °F 100% 29.90 in 0.2 mi North 3.5 mph - N/A Fog Fog
8:35 AM 58.1 °F 58.1 °F 100% 29.91 in 0.2 mi Calm Calm - N/A Fog Fog
8:55 AM 58.3 °F 58.3 °F 100% 29.92 in 0.2 mi Calm Calm - N/A Fog Fog
9:15 AM 58.5 °F 58.5 °F 100% 29.94 in 1.2 mi Calm Calm - N/A   Overcast
9:35 AM 58.1 °F 58.1 °F 100% 29.94 in 10.0 mi Calm Calm - N/A   Mostly Cloudy
9:55 AM 59.9 °F 59.9 °F 100% 29.95 in 10.0 mi North 3.5 mph - N/A   Scattered Clouds
10:15 AM 60.6 °F 60.1 °F 98% 29.96 in 10.0 mi NNW 3.5 mph - N/A   Scattered Clouds
10:35 AM 61.7 °F 59.5 °F 93% 29.95 in 10.0 mi Calm Calm - N/A   Clear
10:55 AM 62.4 °F 59.2 °F 89% 29.96 in 10.0 mi Calm Calm - N/A   Clear
11:15 AM 63.7 °F 59.5 °F 86% 29.95 in 10.0 mi Calm Calm - N/A   Clear
11:35 AM 67.3 °F 59.2 °F 75% 29.95 in 10.0 mi Calm Calm - N/A   Clear
11:55 AM 68.0 °F 57.4 °F 69% 29.94 in 10.0 mi Calm Calm - N/A   Clear
12:15 PM 69.1 °F 53.8 °F 58% 29.93 in 10.0 mi North 4.6 mph - N/A   Clear
12:35 PM 69.6 °F 51.8 °F 53% 29.92 in 10.0 mi NNW 4.6 mph - N/A   Clear
12:55 PM 70.2 °F 53.8 °F 56% 29.92 in 10.0 mi NW 4.6 mph - N/A   Clear
1:15 PM 71.1 °F 53.8 °F 54% 29.91 in 10.0 mi Calm Calm - N/A   Clear
1:35 PM 71.8 °F 55.9 °F 57% 29.90 in 10.0 mi SW 3.5 mph - N/A   Clear
1:55 PM 72.7 °F 55.9 °F 56% 29.89 in 10.0 mi WSW 5.8 mph - N/A   Clear
2:15 PM 72.3 °F 55.4 °F 55% 29.88 in 10.0 mi WNW 4.6 mph - N/A   Clear
2:35 PM 72.9 °F 55.9 °F 55% 29.88 in 10.0 mi WNW 5.8 mph - N/A   Clear
2:55 PM 73.6 °F 54.7 °F 51% 29.87 in 10.0 mi NW 5.8 mph - N/A   Clear
3:15 PM 74.3 °F 54.0 °F 49% 29.87 in 10.0 mi WNW 6.9 mph - N/A   Clear
4:55 PM 74.3 °F 53.2 °F 48% 29.84 in 10.0 mi NNW 5.8 mph - N/A   Clear
5:15 PM 73.8 °F 53.1 °F 48% 29.85 in 10.0 mi North 3.5 mph - N/A   Clear
5:35 PM 73.0 °F 54.1 °F 51% 29.85 in 10.0 mi NNW 3.5 mph - N/A   Clear
5:55 PM 72.0 °F 55.9 °F 57% 29.86 in 10.0 mi North - - N/A   Clear
6:15 PM 70.7 °F 54.9 °F 57% 29.86 in 10.0 mi North - - N/A   Clear
6:35 PM 67.5 °F 57.2 °F 70% 29.87 in 4.0 mi Calm Calm - N/A   Haze
6:55 PM 66.4 °F 59.0 °F 77% 29.88 in 10.0 mi Calm Calm - N/A   Clear
7:15 PM 63.0 °F 58.1 °F 84% 29.89 in 10.0 mi Calm Calm - N/A   Clear
7:35 PM 62.1 °F 57.4 °F 85% 29.89 in 10.0 mi Calm Calm - N/A   Clear
7:55 PM 61.5 °F 57.0 °F 85% 29.90 in 7.0 mi East 3.5 mph - N/A   Clear
8:15 PM 61.7 °F 57.2 °F 85% 29.90 in 10.0 mi Calm Calm - N/A   Clear
8:35 PM 61.2 °F 57.0 °F 86% 29.91 in 10.0 mi East 3.5 mph - N/A   Clear
8:55 PM 62.4 °F 57.0 °F 82% 29.92 in 10.0 mi East 3.5 mph - N/A   Clear
9:15 PM 62.1 °F 57.0 °F 84% 29.93 in 10.0 mi Calm Calm - N/A   Clear
9:35 PM 60.8 °F 57.2 °F 88% 29.93 in 0.5 mi Calm Calm - N/A Fog Fog
9:55 PM 59.7 °F 57.6 °F 93% 29.94 in 10.0 mi Calm Calm - N/A   Clear
10:15 PM 58.1 °F 55.9 °F 93% 29.95 in 10.0 mi Calm Calm - N/A   Clear
10:35 PM 58.1 °F 56.7 °F 95% 29.96 in 10.0 mi Calm Calm - N/A   Clear
10:55 PM 58.1 °F 56.5 °F 94% 29.95 in 3.0 mi Calm Calm - N/A   Clear
11:15 PM 58.3 °F 55.4 °F 90% 29.95 in 10.0 mi Calm Calm - N/A   Clear
11:35 PM 57.7 °F 55.9 °F 94% 29.95 in 10.0 mi Calm Calm - N/A   Clear
11:55 PM 57.2 °F 55.4 °F 94% 29.94 in 10.0 mi Calm Calm - N/A   Clear